createdAt,value
2024-04-13T00:00:42.089Z,58.47
2024-04-13T00:03:31.786Z,58.46
2024-04-13T00:05:59.533Z,58.64
2024-04-13T00:08:27.241Z,59.07
2024-04-13T00:10:54.860Z,58.98
2024-04-13T00:13:22.442Z,58.98
2024-04-13T00:15:59.218Z,58.93
2024-04-13T00:18:27.173Z,59.02
2024-04-13T00:20:54.808Z,59.27
2024-04-13T00:23:25.674Z,59.66
2024-04-13T00:25:54.478Z,59.71
2024-04-13T00:28:22.851Z,59.87
2024-04-13T00:30:50.694Z,60.36
2024-04-13T00:33:20.081Z,60.45
2024-04-13T00:35:47.724Z,60.44
2024-04-13T00:38:15.418Z,60.72
2024-04-13T00:40:43.288Z,60.84
2024-04-13T00:43:11.918Z,60.61
2024-04-13T00:45:46.222Z,60.70
2024-04-13T00:48:17.860Z,60.97
2024-04-13T00:50:48.009Z,61.01
2024-04-13T00:53:17.481Z,61.13
2024-04-13T00:55:45.643Z,61.10
2024-04-13T00:58:13.528Z,60.97
2024-04-13T01:00:42.350Z,60.93
2024-04-13T01:03:10.220Z,60.76
2024-04-13T01:05:39.625Z,60.54
2024-04-13T01:08:07.271Z,60.34
2024-04-13T01:10:34.882Z,60.24
2024-04-13T01:13:02.570Z,59.96
2024-04-13T01:15:30.294Z,59.92
2024-04-13T01:17:58.027Z,59.81
2024-04-13T01:20:26.033Z,59.89
2024-04-13T01:22:54.235Z,59.99
2024-04-13T01:25:23.020Z,60.18
2024-04-13T01:27:50.711Z,60.36
2024-04-13T01:30:19.040Z,60.44
2024-04-13T01:32:46.837Z,60.50
2024-04-13T01:35:15.028Z,60.62
2024-04-13T01:37:43.559Z,60.96
2024-04-13T01:40:11.847Z,60.98
2024-04-13T01:42:46.767Z,60.93
2024-04-13T01:45:15.005Z,60.99
2024-04-13T01:47:42.863Z,60.89
2024-04-13T01:50:12.265Z,60.90
2024-04-13T01:52:40.053Z,60.82
2024-04-13T01:55:08.367Z,60.71
2024-04-13T01:57:36.126Z,60.61
2024-04-13T02:00:04.407Z,60.54
2024-04-13T02:02:32.497Z,60.46
2024-04-13T02:05:00.149Z,60.40
2024-04-13T02:07:30.306Z,60.51
2024-04-13T02:09:58.136Z,60.42
2024-04-13T02:12:26.844Z,60.59
2024-04-13T02:14:55.840Z,60.71
2024-04-13T02:17:23.639Z,60.87
2024-04-13T02:19:51.368Z,60.75
2024-04-13T02:22:19.834Z,60.78
2024-04-13T02:24:47.859Z,60.82
2024-04-13T02:27:15.600Z,60.98
2024-04-13T02:29:44.519Z,61.05
2024-04-13T02:32:12.344Z,61.02
2024-04-13T02:34:40.938Z,61.14
2024-04-13T02:37:08.534Z,61.33
2024-04-13T02:39:36.208Z,61.46
2024-04-13T02:42:04.452Z,61.69
2024-04-13T02:44:32.152Z,61.77
2024-04-13T02:46:59.872Z,61.67
2024-04-13T02:49:28.271Z,61.63
2024-04-13T02:51:55.871Z,61.70
2024-04-13T02:54:23.675Z,61.92
2024-04-13T02:56:52.642Z,61.97
2024-04-13T02:59:21.220Z,62.02
2024-04-13T03:01:48.958Z,61.89
2024-04-13T03:04:17.743Z,61.98
2024-04-13T03:06:45.903Z,62.15
2024-04-13T03:09:14.038Z,62.32
2024-04-13T03:11:41.679Z,62.54
2024-04-13T03:14:09.360Z,62.49
2024-04-13T03:16:37.105Z,62.47
2024-04-13T03:19:04.758Z,62.65
2024-04-13T03:21:36.093Z,62.98
2024-04-13T03:24:05.109Z,62.96
2024-04-13T03:26:33.022Z,62.93
2024-04-13T03:29:01.358Z,62.96
2024-04-13T03:31:29.039Z,63.15
2024-04-13T03:33:59.916Z,63.22
2024-04-13T03:36:28.305Z,63.22
2024-04-13T03:38:56.884Z,63.15
2024-04-13T03:41:24.550Z,63.16
2024-04-13T03:43:52.258Z,63.10
2024-04-13T03:46:19.969Z,63.32
2024-04-13T03:48:48.225Z,63.32
2024-04-13T03:51:16.031Z,63.31
2024-04-13T03:53:43.744Z,63.36
2024-04-13T03:56:11.461Z,63.42
2024-04-13T03:58:39.572Z,63.52
2024-04-13T04:01:07.328Z,63.47
2024-04-13T04:03:35.287Z,63.42
2024-04-13T04:06:03.131Z,63.52
2024-04-13T04:08:30.726Z,63.68
2024-04-13T04:10:58.375Z,63.69
2024-04-13T04:13:26.022Z,63.72
2024-04-13T04:15:53.836Z,63.86
2024-04-13T04:18:21.895Z,64.06
2024-04-13T04:20:49.621Z,64.59
2024-04-13T04:23:17.191Z,64.79
2024-04-13T04:25:45.852Z,64.99
2024-04-13T04:28:13.591Z,65.06
2024-04-13T04:30:41.403Z,65.51
2024-04-13T04:33:09.170Z,65.58
2024-04-13T04:35:38.307Z,65.69
2024-04-13T04:38:05.909Z,66.04
2024-04-13T04:40:35.402Z,66.26
2024-04-13T04:43:03.072Z,66.49
2024-04-13T04:45:30.757Z,66.55
2024-04-13T04:47:59.023Z,66.57
2024-04-13T04:50:27.650Z,66.60
2024-04-13T04:52:55.358Z,66.66
2024-04-13T04:55:23.009Z,66.80
2024-04-13T04:57:50.927Z,66.60
2024-04-13T05:00:19.073Z,66.50
2024-04-13T05:02:46.974Z,66.58
2024-04-13T05:05:16.361Z,66.34
2024-04-13T05:07:44.029Z,66.20
2024-04-13T05:10:12.172Z,66.25
2024-04-13T05:12:39.918Z,66.14
2024-04-13T05:15:07.926Z,66.18
2024-04-13T05:17:35.701Z,66.07
2024-04-13T05:20:04.152Z,66.13
2024-04-13T05:22:31.878Z,65.93
2024-04-13T05:24:59.510Z,65.76
2024-04-13T05:27:27.228Z,65.55
2024-04-13T05:29:55.457Z,65.36
2024-04-13T05:32:23.740Z,65.26
2024-04-13T05:34:51.808Z,65.06
2024-04-13T05:37:19.499Z,65.04
2024-04-13T05:39:47.338Z,65.04
2024-04-13T05:42:15.004Z,64.95
2024-04-13T05:44:42.655Z,64.87
2024-04-13T05:47:10.260Z,64.87
2024-04-13T05:49:37.911Z,64.86
2024-04-13T05:52:06.004Z,64.82
2024-04-13T05:54:33.799Z,64.61
2024-04-13T05:57:01.889Z,64.49
2024-04-13T05:59:29.636Z,64.51
2024-04-13T06:01:58.867Z,64.36
2024-04-13T06:04:26.644Z,64.14
2024-04-13T06:06:54.417Z,64.20
2024-04-13T06:09:22.217Z,64.23
2024-04-13T06:11:50.255Z,64.10
2024-04-13T06:14:17.836Z,63.98
2024-04-13T06:16:48.571Z,64.04
2024-04-13T06:19:16.259Z,63.98
2024-04-13T06:21:44.209Z,63.92
2024-04-13T06:24:12.767Z,63.80
2024-04-13T06:26:40.827Z,63.58
2024-04-13T06:29:08.509Z,63.50
2024-04-13T06:31:36.383Z,63.15
2024-04-13T06:34:04.434Z,62.97
2024-04-13T06:36:32.209Z,62.73
2024-04-13T06:38:59.873Z,62.75
2024-04-13T06:41:27.559Z,62.31
2024-04-13T06:43:56.520Z,61.49
2024-04-13T06:46:24.138Z,61.30
2024-04-13T06:48:51.831Z,61.30
2024-04-13T06:51:19.542Z,60.87
2024-04-13T06:53:47.620Z,60.38
2024-04-13T06:56:15.985Z,60.55
2024-04-13T06:58:44.680Z,60.76
2024-04-13T07:01:12.570Z,60.92
2024-04-13T07:03:41.966Z,60.74
2024-04-13T07:06:09.887Z,60.39
2024-04-13T07:08:44.005Z,59.90
2024-04-13T07:11:12.599Z,59.48
2024-04-13T07:13:40.231Z,59.41
2024-04-13T07:16:08.186Z,59.22
2024-04-13T07:18:36.276Z,58.92
2024-04-13T07:21:04.088Z,58.62
2024-04-13T07:23:31.804Z,57.84
2024-04-13T07:26:00.516Z,57.17
2024-04-13T07:28:29.267Z,56.94
2024-04-13T07:30:57.405Z,56.04
2024-04-13T07:33:25.332Z,55.57
2024-04-13T07:35:53.195Z,55.28
2024-04-13T07:38:21.598Z,54.89
2024-04-13T07:40:49.285Z,54.38
2024-04-13T07:43:16.969Z,53.94
2024-04-13T07:45:45.997Z,53.95
2024-04-13T07:48:13.858Z,54.08
2024-04-13T07:50:41.537Z,53.64
2024-04-13T07:53:09.867Z,53.57
2024-04-13T07:55:37.492Z,53.10
2024-04-13T07:58:05.188Z,52.73
2024-04-13T08:00:33.094Z,52.69
2024-04-13T08:03:02.070Z,52.91
2024-04-13T08:05:30.874Z,52.62
2024-04-13T08:07:58.494Z,51.41
2024-04-13T08:10:26.260Z,50.84
2024-04-13T08:12:53.871Z,50.38
2024-04-13T08:15:21.987Z,49.97
2024-04-13T08:17:49.772Z,49.12
2024-04-13T08:20:18.355Z,49.31
2024-04-13T08:22:46.186Z,48.78
2024-04-13T08:25:13.751Z,48.78
2024-04-13T08:27:41.434Z,47.34
2024-04-13T08:30:10.318Z,47.73
2024-04-13T08:32:39.016Z,46.80
2024-04-13T08:35:09.739Z,45.62
2024-04-13T08:37:37.607Z,45.01
2024-04-13T08:40:05.884Z,45.44
2024-04-13T08:42:37.176Z,45.12
2024-04-13T08:45:05.572Z,43.21
2024-04-13T08:47:34.100Z,42.50
2024-04-13T08:50:03.710Z,43.16
2024-04-13T08:52:31.815Z,42.43
2024-04-13T08:54:59.727Z,41.20
2024-04-13T08:57:30.485Z,41.64
2024-04-13T09:00:01.463Z,42.48
2024-04-13T09:02:36.487Z,42.92
2024-04-13T09:05:05.846Z,43.43
2024-04-13T09:07:34.867Z,43.94
2024-04-13T09:10:05.459Z,44.09
2024-04-13T09:12:33.146Z,44.15
2024-04-13T09:15:01.732Z,44.31
2024-04-13T09:17:32.716Z,43.95
2024-04-13T09:20:08.694Z,43.88
2024-04-13T09:22:37.871Z,43.91
2024-04-13T09:25:05.826Z,44.04
2024-04-13T09:27:35.642Z,43.06
2024-04-13T09:30:10.480Z,43.45
2024-04-13T09:32:38.580Z,43.70
2024-04-13T09:35:10.866Z,43.62
2024-04-13T09:37:39.571Z,43.12
2024-04-13T09:40:08.519Z,43.06
2024-04-13T09:42:36.667Z,42.95
2024-04-13T09:45:08.169Z,42.97
2024-04-13T09:47:36.019Z,43.11
2024-04-13T09:50:04.343Z,43.62
2024-04-13T09:52:33.428Z,44.09
2024-04-13T09:55:01.745Z,43.92
2024-04-13T09:57:29.690Z,42.85
2024-04-13T09:59:57.733Z,41.43
2024-04-13T10:02:26.163Z,41.39
2024-04-13T10:04:53.986Z,41.67
2024-04-13T10:07:25.253Z,41.83
2024-04-13T10:09:59.358Z,42.09
2024-04-13T10:12:31.328Z,41.46
2024-04-13T10:14:59.681Z,40.99
2024-04-13T10:17:28.241Z,40.70
2024-04-13T10:19:56.415Z,40.63
2024-04-13T10:22:32.056Z,40.65
2024-04-13T10:25:07.344Z,40.92
2024-04-13T10:27:35.883Z,41.39
2024-04-13T10:30:06.921Z,41.23
2024-04-13T10:32:34.626Z,41.18
2024-04-13T10:35:14.922Z,40.99
2024-04-13T10:37:42.604Z,40.64
2024-04-13T10:40:10.208Z,40.05
2024-04-13T10:42:39.572Z,40.23
2024-04-13T10:45:15.394Z,40.78
2024-04-13T10:47:43.625Z,40.97
2024-04-13T10:50:12.905Z,41.12
2024-04-13T10:52:41.131Z,41.10
2024-04-13T10:55:13.051Z,40.70
2024-04-13T10:57:44.303Z,40.42
2024-04-13T11:00:12.357Z,39.79
2024-04-13T11:02:40.239Z,40.39
2024-04-13T11:05:08.545Z,41.11
2024-04-13T11:07:36.985Z,41.16
2024-04-13T11:10:05.295Z,40.16
2024-04-13T11:12:33.005Z,40.52
2024-04-13T11:15:00.818Z,41.32
2024-04-13T11:17:28.770Z,41.53
2024-04-13T11:19:57.045Z,41.34
2024-04-13T11:22:27.878Z,41.10
2024-04-13T11:24:56.908Z,40.58
2024-04-13T11:27:24.916Z,39.72
2024-04-13T11:29:53.281Z,39.73
2024-04-13T11:32:21.124Z,39.85
2024-04-13T11:34:48.816Z,40.24
2024-04-13T11:37:18.884Z,40.52
2024-04-13T11:39:47.567Z,40.26
2024-04-13T11:42:15.769Z,40.38
2024-04-13T11:44:43.737Z,40.38
2024-04-13T11:47:11.547Z,40.18
2024-04-13T11:49:42.000Z,39.92
2024-04-13T11:52:14.379Z,39.62
2024-04-13T11:54:42.840Z,39.64
2024-04-13T11:57:12.078Z,39.78
2024-04-13T11:59:40.541Z,39.81
2024-04-13T12:02:08.208Z,39.14
2024-04-13T12:04:35.926Z,38.51
2024-04-13T12:07:03.937Z,38.26
2024-04-13T12:09:31.658Z,38.21
2024-04-13T12:12:02.701Z,38.50
2024-04-13T12:14:39.849Z,37.96
2024-04-13T12:17:17.719Z,37.83
2024-04-13T12:19:49.192Z,37.50
2024-04-13T12:22:17.251Z,37.42
2024-04-13T12:24:44.990Z,37.21
2024-04-13T12:27:12.706Z,37.23
2024-04-13T12:29:40.830Z,37.53
2024-04-13T12:32:08.562Z,36.72
2024-04-13T12:34:37.230Z,36.92
2024-04-13T12:37:04.948Z,36.63
2024-04-13T12:39:32.715Z,36.78
2024-04-13T12:42:02.656Z,37.04
2024-04-13T12:44:30.851Z,36.64
2024-04-13T12:46:58.772Z,36.75
2024-04-13T12:49:26.539Z,36.75
2024-04-13T12:51:54.452Z,36.79
2024-04-13T12:54:22.130Z,36.94
2024-04-13T12:56:49.826Z,36.79
2024-04-13T12:59:17.604Z,36.09
2024-04-13T13:01:45.351Z,35.84
2024-04-13T13:04:13.261Z,35.28
2024-04-13T13:06:41.149Z,35.40
2024-04-13T13:09:08.903Z,35.64
2024-04-13T13:11:36.564Z,35.39
2024-04-13T13:14:04.728Z,34.84
2024-04-13T13:16:32.376Z,34.72
2024-04-13T13:19:00.048Z,34.48
2024-04-13T13:21:27.897Z,34.59
2024-04-13T13:23:55.674Z,35.33
2024-04-13T13:26:23.458Z,35.31
2024-04-13T13:28:53.151Z,35.25
2024-04-13T13:31:21.635Z,35.39
2024-04-13T13:33:49.325Z,35.36
2024-04-13T13:36:17.350Z,35.21
2024-04-13T13:38:44.980Z,35.08
2024-04-13T13:41:12.559Z,34.58
2024-04-13T13:43:40.144Z,34.59
2024-04-13T13:46:07.779Z,33.77
2024-04-13T13:48:35.752Z,33.62
2024-04-13T13:51:04.060Z,33.21
2024-04-13T13:53:31.701Z,32.89
2024-04-13T13:55:59.412Z,33.06
2024-04-13T13:58:27.116Z,32.85
2024-04-13T14:00:55.372Z,32.70
2024-04-13T14:03:23.442Z,33.08
2024-04-13T14:05:51.207Z,33.16
2024-04-13T14:08:18.898Z,33.16
2024-04-13T14:10:46.573Z,33.14
2024-04-13T14:13:14.293Z,32.83
2024-04-13T14:15:42.393Z,32.43
2024-04-13T14:18:10.149Z,32.55
2024-04-13T14:20:44.673Z,32.49
2024-04-13T14:23:12.927Z,32.16
2024-04-13T14:25:40.724Z,32.33
2024-04-13T14:28:08.469Z,32.77
2024-04-13T14:30:36.375Z,33.23
2024-04-13T14:33:04.492Z,33.61
2024-04-13T14:35:32.617Z,33.74
2024-04-13T14:38:01.227Z,33.79
2024-04-13T14:40:29.049Z,33.92
2024-04-13T14:42:57.345Z,34.12
2024-04-13T14:45:25.377Z,34.31
2024-04-13T14:47:53.083Z,34.61
2024-04-13T14:50:20.752Z,34.55
2024-04-13T14:52:48.565Z,34.30
2024-04-13T14:55:16.807Z,34.05
2024-04-13T14:57:47.120Z,34.04
2024-04-13T15:00:15.295Z,34.23
2024-04-13T15:02:43.644Z,34.48
2024-04-13T15:05:11.439Z,35.00
2024-04-13T15:07:39.322Z,35.49
2024-04-13T15:10:07.592Z,35.81
2024-04-13T15:12:35.439Z,35.81
2024-04-13T15:15:03.288Z,35.57
2024-04-13T15:17:31.613Z,35.25
2024-04-13T15:19:59.422Z,35.27
2024-04-13T15:22:27.065Z,34.97
2024-04-13T15:24:54.912Z,34.94
2024-04-13T15:27:22.609Z,34.88
2024-04-13T15:29:50.206Z,34.76
2024-04-13T15:32:18.400Z,34.29
2024-04-13T15:34:46.183Z,34.43
2024-04-13T15:37:17.254Z,34.25
2024-04-13T15:39:44.926Z,34.22
2024-04-13T15:42:12.587Z,34.13
2024-04-13T15:44:40.285Z,34.25
2024-04-13T15:47:07.943Z,34.34
2024-04-13T15:49:35.551Z,34.41
2024-04-13T15:52:03.312Z,33.97
2024-04-13T15:54:30.973Z,34.36
2024-04-13T15:56:58.629Z,34.09
2024-04-13T15:59:26.821Z,34.13
2024-04-13T16:01:55.920Z,34.22
2024-04-13T16:04:23.691Z,34.50
2024-04-13T16:06:54.527Z,34.48
2024-04-13T16:09:22.278Z,34.73
2024-04-13T16:11:49.935Z,34.83
2024-04-13T16:14:20.368Z,34.90
2024-04-13T16:16:48.514Z,35.03
2024-04-13T16:19:16.426Z,35.08
2024-04-13T16:21:44.425Z,35.37
2024-04-13T16:24:12.059Z,35.54
2024-04-13T16:26:39.773Z,35.89
2024-04-13T16:29:07.732Z,36.14
2024-04-13T16:31:35.358Z,36.71
2024-04-13T16:34:03.250Z,36.83
2024-04-13T16:36:31.169Z,37.37
2024-04-13T16:38:59.203Z,37.48
2024-04-13T16:41:26.958Z,37.82
2024-04-13T16:43:54.704Z,38.13
2024-04-13T16:46:22.538Z,38.35
2024-04-13T16:48:50.242Z,38.69
2024-04-13T16:51:18.139Z,39.00
2024-04-13T16:53:45.826Z,39.29
2024-04-13T16:56:13.509Z,39.58
2024-04-13T16:58:41.474Z,39.61
2024-04-13T17:01:09.342Z,39.93
2024-04-13T17:03:37.119Z,40.14
2024-04-13T17:06:05.156Z,40.25
2024-04-13T17:08:32.856Z,40.34
2024-04-13T17:11:00.522Z,40.60
2024-04-13T17:13:29.045Z,40.68
2024-04-13T17:15:56.793Z,40.99
2024-04-13T17:18:24.627Z,41.17
2024-04-13T17:20:53.396Z,41.40
2024-04-13T17:23:21.377Z,41.56
2024-04-13T17:25:49.047Z,41.81
2024-04-13T17:28:16.707Z,42.00
2024-04-13T17:30:46.987Z,42.07
2024-04-13T17:33:14.822Z,42.42
2024-04-13T17:35:42.464Z,42.60
2024-04-13T17:38:10.133Z,42.78
2024-04-13T17:40:39.129Z,42.86
2024-04-13T17:43:07.081Z,42.90
2024-04-13T17:45:34.896Z,43.19
2024-04-13T17:48:03.711Z,43.35
2024-04-13T17:50:31.347Z,43.43
2024-04-13T17:52:58.914Z,43.98
2024-04-13T17:55:26.935Z,43.85
2024-04-13T17:57:54.623Z,44.11
2024-04-13T18:00:22.254Z,44.56
2024-04-13T18:02:49.998Z,44.71
2024-04-13T18:05:17.636Z,44.70
2024-04-13T18:07:45.305Z,44.81
2024-04-13T18:10:12.954Z,45.09
2024-04-13T18:12:40.722Z,45.16
2024-04-13T18:15:08.486Z,45.20
2024-04-13T18:17:36.129Z,45.32
2024-04-13T18:20:03.948Z,45.36
2024-04-13T18:22:32.737Z,45.54
2024-04-13T18:25:00.393Z,45.51
2024-04-13T18:27:28.481Z,45.67
2024-04-13T18:29:56.539Z,45.60
2024-04-13T18:32:24.195Z,45.74
2024-04-13T18:34:51.824Z,45.70
2024-04-13T18:37:19.468Z,45.91
2024-04-13T18:39:47.068Z,46.07
2024-04-13T18:42:16.446Z,46.07
2024-04-13T18:44:44.296Z,46.40
2024-04-13T18:47:11.977Z,46.29
2024-04-13T18:49:45.212Z,46.52
2024-04-13T18:52:12.852Z,46.61
2024-04-13T18:54:40.547Z,46.86
2024-04-13T18:57:08.269Z,46.96
2024-04-13T18:59:35.843Z,47.18
2024-04-13T19:02:04.264Z,47.44
2024-04-13T19:04:31.992Z,47.52
2024-04-13T19:06:59.647Z,47.59
2024-04-13T19:09:27.366Z,47.77
2024-04-13T19:11:55.338Z,48.14
2024-04-13T19:14:23.065Z,48.13
2024-04-13T19:16:52.075Z,48.42
2024-04-13T19:19:19.914Z,48.66
2024-04-13T19:21:47.837Z,48.66
2024-04-13T19:24:16.530Z,48.77
2024-04-13T19:26:44.358Z,48.90
2024-04-13T19:29:13.266Z,48.99
2024-04-13T19:31:41.157Z,49.15
2024-04-13T19:34:09.930Z,49.34
2024-04-13T19:36:37.890Z,49.38
2024-04-13T19:39:05.660Z,49.61
2024-04-13T19:41:33.229Z,50.02
2024-04-13T19:44:00.901Z,50.06
2024-04-13T19:46:28.724Z,50.23
2024-04-13T19:48:56.507Z,50.59
2024-04-13T19:51:24.296Z,50.92
2024-04-13T19:53:53.667Z,51.29
2024-04-13T19:56:21.322Z,51.65
2024-04-13T19:58:48.930Z,51.89
2024-04-13T20:01:17.022Z,52.05
2024-04-13T20:03:44.921Z,52.53
2024-04-13T20:06:12.683Z,52.83
2024-04-13T20:08:42.906Z,52.80
2024-04-13T20:11:10.684Z,52.81
2024-04-13T20:13:38.418Z,52.96
2024-04-13T20:16:24.942Z,53.02
2024-04-13T20:18:52.703Z,53.15
2024-04-13T20:21:20.565Z,53.38
2024-04-13T20:23:48.229Z,53.55
2024-04-13T20:26:16.208Z,53.77
2024-04-13T20:28:45.148Z,53.88
2024-04-13T20:31:13.879Z,54.02
2024-04-13T20:33:46.336Z,54.19
2024-04-13T20:36:14.185Z,54.32
2024-04-13T20:38:42.423Z,54.57
2024-04-13T20:41:10.221Z,54.77
2024-04-13T20:43:40.793Z,54.97
2024-04-13T20:46:08.752Z,55.08
2024-04-13T20:48:36.412Z,55.30
2024-04-13T20:51:04.351Z,55.54
2024-04-13T20:53:32.110Z,55.57
2024-04-13T20:55:59.924Z,55.62
2024-04-13T20:58:27.894Z,55.75
2024-04-13T21:00:59.837Z,55.96
2024-04-13T21:03:27.754Z,56.05
2024-04-13T21:05:55.467Z,56.08
2024-04-13T21:08:23.118Z,56.18
2024-04-13T21:10:50.751Z,56.35
2024-04-13T21:13:18.362Z,56.37
2024-04-13T21:15:46.056Z,56.52
2024-04-13T21:18:13.861Z,56.62
2024-04-13T21:20:41.471Z,56.66
2024-04-13T21:23:09.111Z,56.95
2024-04-13T21:25:38.584Z,56.83
2024-04-13T21:28:07.808Z,56.89
2024-04-13T21:30:38.667Z,57.14
2024-04-13T21:33:06.567Z,57.40
2024-04-13T21:35:34.335Z,57.54
2024-04-13T21:38:01.991Z,57.65
2024-04-13T21:40:29.675Z,57.78
2024-04-13T21:42:57.906Z,57.97
2024-04-13T21:45:25.540Z,58.12
2024-04-13T21:47:53.236Z,58.35
2024-04-13T21:50:21.095Z,58.25
2024-04-13T21:52:48.821Z,58.38
2024-04-13T21:55:16.880Z,59.57
2024-04-13T21:57:44.708Z,59.91
2024-04-13T22:00:15.449Z,59.99
2024-04-13T22:02:43.102Z,59.79
2024-04-13T22:05:10.780Z,59.56
2024-04-13T22:07:38.494Z,58.97
2024-04-13T22:10:06.518Z,59.25
2024-04-13T22:12:34.208Z,58.82
2024-04-13T22:15:01.824Z,58.83
2024-04-13T22:17:29.496Z,59.00
2024-04-13T22:19:57.092Z,59.20
2024-04-13T22:22:24.797Z,59.27
2024-04-13T22:24:52.479Z,59.43
2024-04-13T22:27:20.218Z,59.36
2024-04-13T22:29:48.357Z,59.56
2024-04-13T22:32:16.038Z,59.72
2024-04-13T22:34:43.678Z,59.75
2024-04-13T22:37:11.385Z,59.82
2024-04-13T22:39:39.135Z,59.86
2024-04-13T22:42:07.390Z,59.95
2024-04-13T22:44:35.125Z,59.96
2024-04-13T22:47:02.872Z,60.07
2024-04-13T22:49:30.974Z,60.18
2024-04-13T22:51:58.684Z,60.49
2024-04-13T22:54:26.429Z,60.63
2024-04-13T22:56:54.238Z,61.24
2024-04-13T22:59:22.111Z,61.85
2024-04-13T23:01:50.934Z,62.11
2024-04-13T23:04:18.755Z,61.78
2024-04-13T23:06:46.535Z,61.23
2024-04-13T23:09:14.294Z,61.33
2024-04-13T23:11:41.985Z,61.69
2024-04-13T23:14:10.891Z,61.73
2024-04-13T23:16:38.628Z,61.62
2024-04-13T23:19:06.525Z,61.43
2024-04-13T23:21:36.948Z,61.24
2024-04-13T23:24:04.807Z,61.18
2024-04-13T23:26:32.918Z,61.47
2024-04-13T23:29:01.069Z,61.64
2024-04-13T23:31:29.793Z,61.22
2024-04-13T23:33:57.554Z,61.19
2024-04-13T23:36:25.205Z,61.23
2024-04-13T23:38:52.863Z,61.31
2024-04-13T23:41:20.708Z,61.51
2024-04-13T23:43:48.921Z,61.36
2024-04-13T23:46:16.825Z,61.46
2024-04-13T23:48:44.659Z,61.49
2024-04-13T23:51:12.530Z,61.41
2024-04-13T23:53:40.181Z,61.27
2024-04-13T23:56:08.682Z,61.39
2024-04-13T23:58:36.253Z,61.50
